CheckWX is a tool to help pilots better visualize weather data.  It is not intended as a substitute for an official pre-flight weather briefing.

07:19:14 UTC

KXNA METAR
Northwest Arkansas Regional Airport
Fayetteville/Springdale/Rogers, Arkansas, USA
Current

26 mins ago

KXNA 240653Z AUTO 17007KT 7SM -RA OVC013 09/08 A2975 RMK AO2 RAE01B41 SLP074 P0001 T00890078
Observed
Feb-24 @ 06:53 UTC
Wind
  • 170° at 7 KTS
Visibility
7 SM
Flight Rules
MVFR
Conditions
Light Rain
Cloud Levels
  • Overcast at 1,300' AGL
Temperature
C / 48°F
Dewpoint
C / 46°F
Humidity
94%
Altimeter
29.75" Hg
Pressure
1007.42 hPa
Current Rain
0.01"
Previous

53 mins ago

KXNA 240626Z AUTO 17008KT 7SM FEW008 BKN013 OVC022 09/08 A2976 RMK AO2 RAE01 P0001 T00890078
Observed
Feb-24 @ 06:26 UTC
Wind
  • 170° at 8 KTS
Visibility
7 SM
Flight Rules
MVFR
Cloud Levels
  • Few at 800' AGL
  • Broken at 1,300' AGL
  • Overcast at 2,200' AGL
Temperature
C / 48°F
Dewpoint
C / 46°F
Humidity
94%
Altimeter
29.76" Hg
Pressure
1007.82 hPa
Current Rain
0.01"
Previous

1 hour ago

KXNA 240610Z AUTO 16008KT 5SM BR SCT007 SCT013 OVC022 09/08 A2976 RMK AO2 RAE01 P0000 T00890078
Observed
Feb-24 @ 06:10 UTC
Wind
  • 160° at 8 KTS
Visibility
5 SM
Flight Rules
MVFR
Conditions
Mist
Cloud Levels
  • Scattered at 700' AGL
  • Scattered at 1,300' AGL
  • Overcast at 2,200' AGL
Temperature
C / 48°F
Dewpoint
C / 46°F
Humidity
94%
Altimeter
29.76" Hg
Pressure
1007.82 hPa
Current Rain
0.01"